Hlavní strana
METAR-TAF:

METAR-TAF

Letiště :

Letiště Agadir

Agadir, Maroko

zeměpisná šířka: 30-20N, zeměpisná délka: 009-24W, výška: 74 m

Aktuální stav počasí

Zpráva byla vytvořena před 39 minutami, v 21:00 UTC
Jižní vítr 6 kt
Teplota 15°C
Vlhkost vzduchu 82%
Tlak 1012 hPa
Viditelnost 10 km a více
Skoro jasno ve výšce 3300 ft
Polojasno ve výšce 10000 ft

METAR: GMAD 282100Z 17006KT 9999 FEW033 SCT100 15/12 Q1012 NOSIG

Čas: 22:39 (21:39 UTC)

Předpověď počasí

Zpráva byla vytvořena před 4 hodinami a 39 minutami, v 17:00 UTC
Předpověď platná od 28 v 18 UTC do 01 v 24 UTC
Západní vítr 12 kt
Viditelnost 10 km a více
Polojasno ve výšce 2600 ft, Vertikální cumulus.
Skoro jasno ve výšce 3000 ft, Cumulonimbus.
Pravděpodobnost 30% :
Dočasný
od 01 v 00 UTC do 01 v 12 UTC
Polojasno ve výšce 3000 ft, Cumulonimbus.
bouřka, déšť

TAF: GMAD 281700Z 2818/0124 26012KT 9999 SCT026TCU FEW030CB PROB30 TEMPO 0100/0112 TSRA SCT030CB

Stav a předpovědi počasí z více než 4 000 letišť (zprávy METAR a TAF).

Červené a žluté tečky na mapě představují dostupné meteorologické stanice.

Když kurzor umístíte na tečku, zobrazí se název stanice.

Pak kliknutím zobrazíte stav a předpověď počasí.

Chcete-li změnit mapu, kliknutím na zelené tlačítko se znaménkem +mapu přiblížíte, kliknutím na zelené tlačítko se znaménkem – mapu oddálíte a kliknutím na zelené šipky přejdete na sousední mapy.


METAR-TAF: